createdAt,value
2022-11-05T00:00:34.052Z,98245.75
2022-11-05T00:03:18.826Z,98246.00
2022-11-05T00:06:07.394Z,98247.00
2022-11-05T00:08:52.743Z,98251.22
2022-11-05T00:11:19.199Z,98249.84
2022-11-05T00:14:04.288Z,98249.56
2022-11-05T00:16:45.583Z,98251.38
2022-11-05T00:19:13.387Z,98247.03
2022-11-05T00:21:58.407Z,98255.72
2022-11-05T00:24:43.738Z,98250.38
2022-11-05T00:27:10.733Z,98266.75
2022-11-05T00:29:37.123Z,98260.28
2022-11-05T00:32:03.699Z,98259.88
2022-11-05T00:34:32.034Z,98263.56
2022-11-05T00:36:58.394Z,98253.13
2022-11-05T00:39:24.770Z,98265.59
2022-11-05T00:42:11.101Z,98266.41
2022-11-05T00:44:56.259Z,98269.91
2022-11-05T00:47:40.948Z,98288.06
2022-11-05T00:50:07.694Z,98281.38
2022-11-05T00:52:52.592Z,98288.59
2022-11-05T00:55:18.983Z,98288.72
2022-11-05T00:57:45.446Z,98290.41
2022-11-05T01:00:12.505Z,98294.19
2022-11-05T01:02:38.964Z,98296.31
2022-11-05T01:05:05.910Z,98297.31
2022-11-05T01:07:32.355Z,98299.22
2022-11-05T01:09:58.709Z,98306.00
2022-11-05T01:12:25.146Z,98303.03
2022-11-05T01:14:51.518Z,98305.25
2022-11-05T01:17:17.975Z,98297.44
2022-11-05T01:19:44.324Z,98296.47
2022-11-05T01:22:10.706Z,98298.28
2022-11-05T01:24:37.183Z,98302.75
2022-11-05T01:27:03.659Z,98306.94
2022-11-05T01:29:30.033Z,98303.69
2022-11-05T01:31:56.384Z,98313.03
2022-11-05T01:34:22.869Z,98309.38
2022-11-05T01:36:49.266Z,98304.63
2022-11-05T01:39:15.923Z,98313.34
2022-11-05T01:41:42.327Z,98314.56
2022-11-05T01:44:49.809Z,98320.66
2022-11-05T01:47:41.413Z,98325.56
2022-11-05T01:50:20.010Z,98327.66
2022-11-05T01:52:48.452Z,98331.63
2022-11-05T01:55:18.489Z,98332.84
2022-11-05T01:57:45.199Z,98336.78
2022-11-05T02:00:12.380Z,98335.94
2022-11-05T02:02:39.071Z,98344.31
2022-11-05T02:05:07.009Z,98341.50
2022-11-05T02:07:33.819Z,98342.78
2022-11-05T02:10:09.219Z,98339.69
2022-11-05T02:12:39.228Z,98346.28
2022-11-05T02:15:06.991Z,98348.81
2022-11-05T02:17:36.161Z,98341.41
2022-11-05T02:20:13.494Z,98346.56
2022-11-05T02:22:51.835Z,98346.66
2022-11-05T02:25:37.078Z,98348.34
2022-11-05T02:28:15.512Z,98349.22
2022-11-05T02:31:09.309Z,98350.06
2022-11-05T02:33:47.355Z,98349.06
2022-11-05T02:36:20.763Z,98347.00
2022-11-05T02:38:58.608Z,98342.53
2022-11-05T02:41:33.906Z,98349.13
2022-11-05T02:44:19.142Z,98366.03
2022-11-05T02:46:51.646Z,98369.97
2022-11-05T02:49:23.968Z,98361.13
2022-11-05T02:51:57.845Z,98368.13
2022-11-05T02:54:36.326Z,98368.81
2022-11-05T02:57:04.723Z,98377.53
2022-11-05T02:59:31.743Z,98371.50
2022-11-05T03:02:00.782Z,98372.63
2022-11-05T03:04:28.275Z,98373.31
2022-11-05T03:07:15.888Z,98370.56
2022-11-05T03:10:16.159Z,98371.81
2022-11-05T03:13:14.138Z,98367.38
2022-11-05T03:15:52.540Z,98369.84
2022-11-05T03:18:46.075Z,98372.25
2022-11-05T03:21:20.894Z,98381.03
2022-11-05T03:23:55.985Z,98385.94
2022-11-05T03:26:29.057Z,98393.50
2022-11-05T03:29:07.604Z,98394.75
2022-11-05T03:31:36.532Z,98384.13
2022-11-05T03:34:06.076Z,98390.84
2022-11-05T03:36:39.479Z,98398.66
2022-11-05T03:39:10.843Z,98401.84
2022-11-05T03:41:43.115Z,98391.66
2022-11-05T03:44:15.748Z,98393.19
2022-11-05T03:46:45.416Z,98393.63
2022-11-05T03:49:21.560Z,98406.66
2022-11-05T03:52:05.951Z,98409.28
2022-11-05T03:54:33.988Z,98415.88
2022-11-05T03:57:25.856Z,98415.03
2022-11-05T03:59:52.456Z,98413.22
2022-11-05T04:02:22.721Z,98412.44
2022-11-05T04:04:49.335Z,98419.59
2022-11-05T04:07:34.076Z,98421.97
2022-11-05T04:10:18.840Z,98419.84
2022-11-05T04:13:04.092Z,98430.06
2022-11-05T04:15:30.734Z,98427.50
2022-11-05T04:17:59.999Z,98432.41
2022-11-05T04:20:45.182Z,98429.91
2022-11-05T04:23:30.378Z,98434.38
2022-11-05T04:25:56.735Z,98449.06
2022-11-05T04:28:43.081Z,98450.31
2022-11-05T04:31:09.428Z,98454.38
2022-11-05T04:33:35.852Z,98459.34
2022-11-05T04:36:02.344Z,98457.63
2022-11-05T04:38:28.694Z,98468.22
2022-11-05T04:41:12.483Z,98462.56
2022-11-05T04:43:38.941Z,98469.66
2022-11-05T04:46:05.424Z,98475.88
2022-11-05T04:48:31.965Z,98473.81
2022-11-05T04:50:58.321Z,98479.28
2022-11-05T04:53:24.740Z,98473.00
2022-11-05T04:55:51.098Z,98477.31
2022-11-05T04:58:17.523Z,98480.56
2022-11-05T05:00:44.100Z,98478.75
2022-11-05T05:03:10.959Z,98486.00
2022-11-05T05:05:37.557Z,98480.47
2022-11-05T05:08:05.000Z,98483.13
2022-11-05T05:10:32.526Z,98492.88
2022-11-05T05:12:58.908Z,98493.22
2022-11-05T05:15:25.269Z,98499.59
2022-11-05T05:17:52.304Z,98493.78
2022-11-05T05:20:39.784Z,98491.53
2022-11-05T05:23:06.224Z,98508.53
2022-11-05T05:25:32.620Z,98502.44
2022-11-05T05:27:59.063Z,98499.13
2022-11-05T05:30:25.813Z,98507.69
2022-11-05T05:32:52.174Z,98511.97
2022-11-05T05:35:18.535Z,98510.66
2022-11-05T05:37:44.921Z,98516.22
2022-11-05T05:40:11.783Z,98518.06
2022-11-05T05:42:42.900Z,98513.59
2022-11-05T05:45:10.661Z,98519.53
2022-11-05T05:47:37.032Z,98531.53
2022-11-05T05:50:03.767Z,98518.41
2022-11-05T05:52:30.191Z,98525.66
2022-11-05T05:54:56.564Z,98511.13
2022-11-05T05:57:23.089Z,98522.88
2022-11-05T05:59:49.473Z,98524.59
2022-11-05T06:02:16.111Z,98528.44
2022-11-05T06:04:42.605Z,98534.63
2022-11-05T06:07:09.001Z,98540.28
2022-11-05T06:09:35.387Z,98548.19
2022-11-05T06:12:02.080Z,98549.34
2022-11-05T06:14:28.477Z,98556.13
2022-11-05T06:16:54.880Z,98562.84
2022-11-05T06:19:21.308Z,98567.34
2022-11-05T06:21:47.694Z,98565.41
2022-11-05T06:24:14.191Z,98572.13
2022-11-05T06:26:43.114Z,98571.00
2022-11-05T06:29:10.723Z,98575.75
2022-11-05T06:31:37.181Z,98575.75
2022-11-05T06:34:03.707Z,98576.22
2022-11-05T06:36:30.035Z,98576.81
2022-11-05T06:38:56.359Z,98580.00
2022-11-05T06:41:22.799Z,98579.44
2022-11-05T06:43:49.166Z,98589.94
2022-11-05T06:46:15.668Z,98592.38
2022-11-05T06:48:42.174Z,98604.22
2022-11-05T06:51:09.400Z,98603.69
2022-11-05T06:53:36.137Z,98607.78
2022-11-05T06:56:04.973Z,98611.38
2022-11-05T06:58:31.694Z,98617.28
2022-11-05T07:01:05.991Z,98624.47
2022-11-05T07:03:32.455Z,98626.25
2022-11-05T07:06:02.969Z,98623.91
2022-11-05T07:08:37.599Z,98630.13
2022-11-05T07:11:04.731Z,98632.47
2022-11-05T07:13:31.171Z,98634.91
2022-11-05T07:15:57.874Z,98641.66
2022-11-05T07:18:24.782Z,98644.47
2022-11-05T07:20:51.244Z,98650.41
2022-11-05T07:23:17.720Z,98650.31
2022-11-05T07:25:44.219Z,98647.94
2022-11-05T07:28:11.194Z,98657.91
2022-11-05T07:30:37.829Z,98667.06
2022-11-05T07:33:04.611Z,98668.50
2022-11-05T07:35:31.174Z,98672.56
2022-11-05T07:37:57.678Z,98672.97
2022-11-05T07:40:26.443Z,98670.00
2022-11-05T07:43:02.392Z,98668.84
2022-11-05T07:45:30.575Z,98678.28
2022-11-05T07:48:00.451Z,98675.13
2022-11-05T07:50:29.362Z,98676.41
2022-11-05T07:53:12.338Z,98679.78
2022-11-05T07:55:41.539Z,98685.84
2022-11-05T07:58:08.165Z,98685.03
2022-11-05T08:00:34.606Z,98687.34
2022-11-05T08:03:08.376Z,98694.28
2022-11-05T08:05:37.463Z,98694.53
2022-11-05T08:08:04.810Z,98702.97
2022-11-05T08:10:31.372Z,98698.00
2022-11-05T08:12:57.845Z,98698.03
2022-11-05T08:15:24.440Z,98694.16
2022-11-05T08:17:57.427Z,98698.81
2022-11-05T08:20:23.853Z,98700.09
2022-11-05T08:22:50.223Z,98702.66
2022-11-05T08:25:16.651Z,98710.81
2022-11-05T08:27:43.056Z,98702.75
2022-11-05T08:30:09.935Z,98703.88
2022-11-05T08:32:36.395Z,98702.94
2022-11-05T08:35:02.910Z,98699.28
2022-11-05T08:37:29.334Z,98707.44
2022-11-05T08:39:56.014Z,98708.13
2022-11-05T08:42:22.374Z,98704.94
2022-11-05T08:44:48.745Z,98710.38
2022-11-05T08:47:15.253Z,98707.03
2022-11-05T08:49:41.810Z,98710.38
2022-11-05T08:52:08.289Z,98712.06
2022-11-05T08:54:34.906Z,98723.25
2022-11-05T08:57:01.459Z,98717.78
2022-11-05T08:59:29.766Z,98720.19
2022-11-05T09:01:56.254Z,98723.53
2022-11-05T09:04:23.096Z,98721.63
2022-11-05T09:06:49.444Z,98719.19
2022-11-05T09:09:15.914Z,98713.16
2022-11-05T09:12:10.052Z,98720.53
2022-11-05T09:14:30.065Z,98716.91
2022-11-05T09:16:56.491Z,98720.66
2022-11-05T09:19:22.924Z,98723.22
2022-11-05T09:21:49.323Z,98717.09
2022-11-05T09:24:16.210Z,98726.75
2022-11-05T09:26:42.618Z,98728.06
2022-11-05T09:29:14.038Z,98727.50
2022-11-05T09:31:41.190Z,98728.75
2022-11-05T09:34:07.571Z,98732.69
2022-11-05T09:36:33.980Z,98731.28
2022-11-05T09:39:00.911Z,98737.72
2022-11-05T09:41:32.591Z,98739.75
2022-11-05T09:44:11.333Z,98738.69
2022-11-05T09:46:50.005Z,98743.19
2022-11-05T09:49:39.982Z,98749.34
2022-11-05T09:52:11.991Z,98754.63
2022-11-05T09:54:38.392Z,98748.78
2022-11-05T09:57:07.809Z,98748.84
2022-11-05T09:59:41.391Z,98753.34
2022-11-05T10:02:33.049Z,98758.34
2022-11-05T10:05:09.418Z,98765.91
2022-11-05T10:07:45.122Z,98769.47
2022-11-05T10:10:27.100Z,98769.03
2022-11-05T10:12:58.803Z,98765.69
2022-11-05T10:15:31.171Z,98763.34
2022-11-05T10:18:16.603Z,98778.63
2022-11-05T10:20:44.462Z,98772.31
2022-11-05T10:23:17.130Z,98786.28
2022-11-05T10:25:50.709Z,98776.72
2022-11-05T10:28:26.284Z,98781.59
2022-11-05T10:30:58.124Z,98785.22
2022-11-05T10:33:46.773Z,98786.25
2022-11-05T10:36:28.274Z,98786.19
2022-11-05T10:39:01.560Z,98780.66
2022-11-05T10:41:52.660Z,98774.66
2022-11-05T10:44:48.817Z,98785.72
2022-11-05T10:47:33.587Z,98783.34
2022-11-05T10:50:02.659Z,98776.44
2022-11-05T10:52:35.488Z,98779.22
2022-11-05T10:55:10.511Z,98775.56
2022-11-05T10:57:39.561Z,98777.53
2022-11-05T11:00:15.302Z,98778.03
2022-11-05T11:02:43.096Z,98779.22
2022-11-05T11:05:29.870Z,98773.84
2022-11-05T11:08:05.336Z,98778.56
2022-11-05T11:10:39.319Z,98770.66
2022-11-05T11:13:06.534Z,98779.75
2022-11-05T11:15:32.908Z,98771.97
2022-11-05T11:18:31.510Z,98779.78
2022-11-05T11:21:23.041Z,98775.78
2022-11-05T11:24:04.286Z,98771.28
2022-11-05T11:26:37.446Z,98762.97
2022-11-05T11:29:25.604Z,98763.63
2022-11-05T11:32:01.034Z,98760.06
2022-11-05T11:34:38.797Z,98759.13
2022-11-05T11:37:25.183Z,98757.22
2022-11-05T11:40:14.743Z,98753.94
2022-11-05T11:42:46.172Z,98760.06
2022-11-05T11:45:25.837Z,98754.34
2022-11-05T11:47:52.365Z,98757.50
2022-11-05T11:50:34.268Z,98758.22
2022-11-05T11:53:35.878Z,98759.63
2022-11-05T11:56:04.609Z,98745.88
2022-11-05T11:58:41.916Z,98758.22
2022-11-05T12:01:36.575Z,98751.69
2022-11-05T12:04:28.464Z,98749.41
2022-11-05T12:07:39.167Z,98748.66
2022-11-05T12:10:18.302Z,98744.13
2022-11-05T12:12:59.800Z,98739.63
2022-11-05T12:15:46.450Z,98742.53
2022-11-05T12:18:35.248Z,98743.59
2022-11-05T12:21:24.994Z,98741.66
2022-11-05T12:24:45.736Z,98744.22
2022-11-05T12:27:25.797Z,98745.66
2022-11-05T12:30:03.873Z,98740.66
2022-11-05T12:32:42.332Z,98738.38
2022-11-05T12:35:33.856Z,98742.19
2022-11-05T12:38:19.023Z,98739.09
2022-11-05T12:41:10.611Z,98733.41
2022-11-05T12:44:14.386Z,98740.22
2022-11-05T12:46:56.043Z,98742.66
2022-11-05T12:49:41.036Z,98739.19
2022-11-05T12:52:13.596Z,98744.69
2022-11-05T12:54:59.463Z,98742.66
2022-11-05T12:57:28.603Z,98750.97
2022-11-05T13:00:07.158Z,98756.28
2022-11-05T13:02:33.602Z,98761.38
2022-11-05T13:05:16.823Z,98765.56
2022-11-05T13:08:02.523Z,98767.56
2022-11-05T13:10:44.733Z,98764.59
2022-11-05T13:13:39.912Z,98763.38
2022-11-05T13:16:13.916Z,98756.53
2022-11-05T13:19:15.780Z,98757.41
2022-11-05T13:21:45.437Z,98754.84
2022-11-05T13:24:23.458Z,98755.72
2022-11-05T13:26:58.694Z,98757.72
2022-11-05T13:30:02.005Z,98757.00
2022-11-05T13:32:35.336Z,98755.19
2022-11-05T13:35:13.703Z,98754.34
2022-11-05T13:38:02.667Z,98756.16
2022-11-05T13:40:54.109Z,98754.53
2022-11-05T13:43:45.095Z,98760.31
2022-11-05T13:46:23.565Z,98752.25
2022-11-05T13:49:24.095Z,98752.63
2022-11-05T13:52:22.608Z,98755.03
2022-11-05T13:54:54.789Z,98752.34
2022-11-05T13:57:33.089Z,98759.63
2022-11-05T14:00:05.520Z,98759.13
2022-11-05T14:02:43.338Z,98755.78
2022-11-05T14:05:28.167Z,98750.22
2022-11-05T14:07:56.595Z,98749.03
2022-11-05T14:10:30.231Z,98748.94
2022-11-05T14:13:01.134Z,98751.00
2022-11-05T14:15:30.005Z,98758.69
2022-11-05T14:18:03.510Z,98751.47
2022-11-05T14:20:33.097Z,98751.47
2022-11-05T14:23:21.013Z,98746.75
2022-11-05T14:25:50.339Z,98741.09
2022-11-05T14:28:35.131Z,98745.16
2022-11-05T14:31:47.426Z,98746.38
2022-11-05T14:34:13.404Z,98747.00
2022-11-05T14:36:46.371Z,98752.91
2022-11-05T14:39:28.890Z,98752.75
2022-11-05T14:42:12.140Z,98755.88
2022-11-05T14:44:58.105Z,98759.13
2022-11-05T14:47:28.737Z,98755.72
2022-11-05T14:50:01.836Z,98750.84
2022-11-05T14:52:28.872Z,98770.00
2022-11-05T14:54:57.541Z,98769.88
2022-11-05T14:57:42.215Z,98764.94
2022-11-05T15:00:31.209Z,98763.19
2022-11-05T15:03:46.422Z,98764.88
2022-11-05T15:06:19.186Z,98765.63
2022-11-05T15:08:48.600Z,98772.72
2022-11-05T15:11:21.313Z,98765.72
2022-11-05T15:13:53.832Z,98766.56
2022-11-05T15:16:25.052Z,98768.16
2022-11-05T15:18:54.056Z,98764.09
2022-11-05T15:21:21.416Z,98774.50
2022-11-05T15:23:51.892Z,98774.53
2022-11-05T15:26:28.101Z,98780.59
2022-11-05T15:28:56.221Z,98779.44
2022-11-05T15:31:32.110Z,98779.59
2022-11-05T15:34:20.061Z,98776.66
2022-11-05T15:36:53.396Z,98773.72
2022-11-05T15:39:29.983Z,98779.34
2022-11-05T15:41:58.743Z,98770.91
2022-11-05T15:44:30.580Z,98771.91
2022-11-05T15:47:35.440Z,98768.66
2022-11-05T15:50:15.394Z,98767.91
2022-11-05T15:52:50.728Z,98767.19
2022-11-05T15:55:26.154Z,98757.78
2022-11-05T15:57:52.584Z,98752.41
2022-11-05T16:00:21.708Z,98750.84
2022-11-05T16:02:58.869Z,98759.78
2022-11-05T16:05:27.870Z,98756.16
2022-11-05T16:07:58.139Z,98755.06
2022-11-05T16:10:29.795Z,98755.66
2022-11-05T16:12:56.748Z,98761.13
2022-11-05T16:15:32.810Z,98762.38
2022-11-05T16:18:00.245Z,98762.03
2022-11-05T16:20:36.955Z,98760.22
2022-11-05T16:23:22.765Z,98762.44
2022-11-05T16:25:50.312Z,98772.00
2022-11-05T16:28:25.958Z,98773.34
2022-11-05T16:31:04.483Z,98771.06
2022-11-05T16:33:35.271Z,98772.56
2022-11-05T16:36:01.796Z,98771.88
2022-11-05T16:38:28.255Z,98780.41
2022-11-05T16:40:54.828Z,98782.06
2022-11-05T16:43:25.395Z,98799.09
2022-11-05T16:46:02.408Z,98800.66
2022-11-05T16:48:31.211Z,98807.41
2022-11-05T16:50:57.769Z,98814.66
2022-11-05T16:53:28.137Z,98813.56
2022-11-05T16:55:59.344Z,98816.00
2022-11-05T16:58:26.678Z,98814.47
2022-11-05T17:01:00.940Z,98813.38
2022-11-05T17:03:27.492Z,98817.25
2022-11-05T17:05:53.993Z,98824.56
2022-11-05T17:08:23.738Z,98826.50
2022-11-05T17:10:50.410Z,98823.03
2022-11-05T17:13:19.724Z,98823.72
2022-11-05T17:15:49.525Z,98827.31
2022-11-05T17:18:18.894Z,98821.53
2022-11-05T17:20:48.595Z,98824.03
2022-11-05T17:23:18.412Z,98828.81
2022-11-05T17:25:47.817Z,98822.06
2022-11-05T17:28:15.149Z,98828.88
2022-11-05T17:30:43.909Z,98824.28
2022-11-05T17:33:16.155Z,98822.38
2022-11-05T17:35:42.977Z,98827.00
2022-11-05T17:38:11.082Z,98832.00
2022-11-05T17:40:38.019Z,98834.63
2022-11-05T17:43:05.046Z,98830.66
2022-11-05T17:45:31.751Z,98832.25
2022-11-05T17:47:58.201Z,98838.19
2022-11-05T17:50:24.901Z,98831.34
2022-11-05T17:52:52.206Z,98828.25
2022-11-05T17:55:18.780Z,98830.19
2022-11-05T17:57:48.550Z,98825.09
2022-11-05T18:00:18.235Z,98820.44
2022-11-05T18:02:46.030Z,98825.59
2022-11-05T18:05:12.847Z,98832.72
2022-11-05T18:07:39.756Z,98831.09
2022-11-05T18:10:06.892Z,98835.47
2022-11-05T18:12:33.831Z,98824.13
2022-11-05T18:15:00.582Z,98831.53
2022-11-05T18:17:27.012Z,98839.91
2022-11-05T18:19:53.477Z,98835.94
2022-11-05T18:22:20.403Z,98838.84
2022-11-05T18:24:46.884Z,98844.78
2022-11-05T18:27:13.703Z,98850.69
2022-11-05T18:29:41.334Z,98844.56
2022-11-05T18:32:08.882Z,98854.31
2022-11-05T18:34:35.878Z,98851.16
2022-11-05T18:37:02.496Z,98853.91
2022-11-05T18:39:29.808Z,98856.44
2022-11-05T18:41:56.958Z,98854.13
2022-11-05T18:44:24.798Z,98852.94
2022-11-05T18:46:58.205Z,98853.03
2022-11-05T18:49:27.038Z,98851.66
2022-11-05T18:51:54.060Z,98860.19
2022-11-05T18:54:20.615Z,98860.84
2022-11-05T18:56:47.272Z,98858.81
2022-11-05T19:02:04.936Z,98858.06
2022-11-05T19:04:31.503Z,98851.09
2022-11-05T19:07:01.691Z,98849.75
2022-11-05T19:09:31.437Z,98842.00
2022-11-05T19:11:58.115Z,98843.94
2022-11-05T19:14:24.583Z,98844.06
2022-11-05T19:16:50.982Z,98849.69
2022-11-05T19:19:17.617Z,98853.69
2022-11-05T19:21:44.508Z,98862.75
2022-11-05T19:24:16.698Z,98853.41
2022-11-05T19:26:44.035Z,98851.47
2022-11-05T19:29:10.461Z,98850.75
2022-11-05T19:31:37.017Z,98848.06
2022-11-05T19:34:05.316Z,98844.69
2022-11-05T19:36:32.965Z,98849.16
2022-11-05T19:39:04.740Z,98844.91
2022-11-05T19:41:31.285Z,98848.50
2022-11-05T19:43:58.123Z,98851.16
2022-11-05T19:46:25.531Z,98850.31
2022-11-05T19:48:52.409Z,98858.00
2022-11-05T19:51:22.612Z,98861.50
2022-11-05T19:53:49.688Z,98849.34
2022-11-05T19:56:19.229Z,98852.50
2022-11-05T19:58:46.097Z,98852.63
2022-11-05T20:01:14.300Z,98853.09
2022-11-05T20:03:41.483Z,98847.88
2022-11-05T20:06:10.808Z,98848.25
2022-11-05T20:08:59.378Z,98853.09
2022-11-05T20:11:25.523Z,98857.09
2022-11-05T20:13:52.219Z,98849.94
2022-11-05T20:16:40.278Z,98852.72
2022-11-05T20:19:11.200Z,98847.66
2022-11-05T20:21:38.345Z,98845.81
2022-11-05T20:24:05.582Z,98843.16
2022-11-05T20:26:32.664Z,98839.69
2022-11-05T20:28:59.306Z,98837.38
2022-11-05T20:31:25.941Z,98838.31
2022-11-05T20:33:53.329Z,98835.69
2022-11-05T20:36:24.903Z,98847.09
2022-11-05T20:38:58.360Z,98848.69
2022-11-05T20:41:26.054Z,98860.44
2022-11-05T20:43:53.149Z,98855.88
2022-11-05T20:46:21.934Z,98855.88
2022-11-05T20:48:49.098Z,98850.94
2022-11-05T20:51:19.453Z,98845.97
2022-11-05T20:53:46.563Z,98846.19
2022-11-05T20:56:22.617Z,98859.84
2022-11-05T20:58:49.518Z,98860.94
2022-11-05T21:01:17.139Z,98863.91
2022-11-05T21:03:44.982Z,98852.03
2022-11-05T21:06:11.901Z,98858.69
2022-11-05T21:08:38.373Z,98856.75
2022-11-05T21:11:05.671Z,98854.13
2022-11-05T21:13:32.995Z,98860.00
2022-11-05T21:16:00.758Z,98856.50
2022-11-05T21:18:29.797Z,98849.41
2022-11-05T21:20:56.592Z,98844.44
2022-11-05T21:23:23.276Z,98848.78
2022-11-05T21:25:49.667Z,98849.88
2022-11-05T21:28:16.713Z,98845.16
2022-11-05T21:30:45.924Z,98834.22
2022-11-05T21:33:14.854Z,98836.13
2022-11-05T21:35:46.115Z,98844.56
2022-11-05T21:38:15.126Z,98841.81
2022-11-05T21:40:42.453Z,98847.16
2022-11-05T21:43:09.486Z,98851.72
2022-11-05T21:45:41.621Z,98852.78
2022-11-05T21:48:09.703Z,98851.22
2022-11-05T21:50:57.132Z,98848.34
2022-11-05T21:53:43.188Z,98859.72
2022-11-05T21:56:46.698Z,98857.97
2022-11-05T21:59:34.851Z,98860.50
2022-11-05T22:02:02.511Z,98855.47
2022-11-05T22:04:30.464Z,98863.34
2022-11-05T22:06:57.087Z,98868.25
2022-11-05T22:09:24.751Z,98870.69
2022-11-05T22:11:51.605Z,98868.25
2022-11-05T22:14:18.892Z,98865.50
2022-11-05T22:16:45.279Z,98866.75
2022-11-05T22:19:11.930Z,98859.75
2022-11-05T22:21:39.514Z,98858.44
2022-11-05T22:24:06.472Z,98860.19
2022-11-05T22:26:33.505Z,98859.22
2022-11-05T22:28:59.936Z,98856.25
2022-11-05T22:31:27.793Z,98853.53
2022-11-05T22:33:56.964Z,98853.03
2022-11-05T22:36:23.405Z,98862.31
2022-11-05T22:38:50.027Z,98859.81
2022-11-05T22:41:19.528Z,98859.94
2022-11-05T22:43:46.565Z,98865.09
2022-11-05T22:46:16.142Z,98858.06
2022-11-05T22:48:43.431Z,98862.75
2022-11-05T22:51:18.385Z,98864.81
2022-11-05T22:53:45.296Z,98861.91
2022-11-05T22:56:14.201Z,98852.06
2022-11-05T22:58:41.142Z,98851.34
2022-11-05T23:01:09.288Z,98845.41
2022-11-05T23:03:35.789Z,98844.06
2022-11-05T23:06:05.232Z,98848.19
2022-11-05T23:08:50.694Z,98853.75
2022-11-05T23:11:35.518Z,98847.44
2022-11-05T23:14:03.079Z,98848.91
2022-11-05T23:16:55.604Z,98844.91
2022-11-05T23:19:41.243Z,98847.81
2022-11-05T23:22:33.079Z,98838.09
2022-11-05T23:24:59.796Z,98836.91
2022-11-05T23:27:31.138Z,98839.34
2022-11-05T23:29:59.249Z,98839.56
2022-11-05T23:32:28.450Z,98832.97
2022-11-05T23:34:57.114Z,98843.88
2022-11-05T23:37:46.345Z,98839.34
2022-11-05T23:40:16.506Z,98837.94
2022-11-05T23:43:02.954Z,98839.34
2022-11-05T23:45:48.903Z,98840.84
2022-11-05T23:48:19.141Z,98827.03
2022-11-05T23:51:00.114Z,98818.06
2022-11-05T23:53:27.537Z,98809.41
2022-11-05T23:55:59.348Z,98800.34
2022-11-05T23:58:25.833Z,98799.34
